sensor_id;sensor_type;location;lat;lon;timestamp;temperature;humidity
52209;DHT22;38507;53.132;6.394;2023-02-10T00:00:54;1.00;99.90
52209;DHT22;38507;53.132;6.394;2023-02-10T00:03:20;0.90;99.90
52209;DHT22;38507;53.132;6.394;2023-02-10T00:05:46;1.00;99.90
52209;DHT22;38507;53.132;6.394;2023-02-10T00:08:11;1.90;99.90
52209;DHT22;38507;53.132;6.394;2023-02-10T00:10:37;0.90;99.90
52209;DHT22;38507;53.132;6.394;2023-02-10T00:13:03;0.80;99.90
52209;DHT22;38507;53.132;6.394;2023-02-10T00:15:28;2.20;99.90
52209;DHT22;38507;53.132;6.394;2023-02-10T00:17:54;0.80;99.90
52209;DHT22;38507;53.132;6.394;2023-02-10T00:20:20;0.70;99.90
52209;DHT22;38507;53.132;6.394;2023-02-10T00:22:45;0.80;99.90
52209;DHT22;38507;53.132;6.394;2023-02-10T00:25:11;0.80;99.90
52209;DHT22;38507;53.132;6.394;2023-02-10T00:27:36;0.70;99.90
52209;DHT22;38507;53.132;6.394;2023-02-10T00:30:02;1.50;99.90
52209;DHT22;38507;53.132;6.394;2023-02-10T00:32:28;0.80;99.90
52209;DHT22;38507;53.132;6.394;2023-02-10T00:34:54;1.50;99.90
52209;DHT22;38507;53.132;6.394;2023-02-10T00:37:19;0.80;99.90
52209;DHT22;38507;53.132;6.394;2023-02-10T00:39:45;0.50;99.90
52209;DHT22;38507;53.132;6.394;2023-02-10T00:42:11;0.70;99.90
52209;DHT22;38507;53.132;6.394;2023-02-10T00:44:37;1.60;99.90
52209;DHT22;38507;53.132;6.394;2023-02-10T00:47:02;0.60;99.90
52209;DHT22;38507;53.132;6.394;2023-02-10T00:49:28;1.20;99.90
52209;DHT22;38507;53.132;6.394;2023-02-10T00:51:54;1.80;99.90
52209;DHT22;38507;53.132;6.394;2023-02-10T00:54:19;0.60;99.90
52209;DHT22;38507;53.132;6.394;2023-02-10T00:56:45;1.20;99.90
52209;DHT22;38507;53.132;6.394;2023-02-10T00:59:14;0.60;99.90
52209;DHT22;38507;53.132;6.394;2023-02-10T01:01:41;0.60;99.90
52209;DHT22;38507;53.132;6.394;2023-02-10T01:04:06;0.70;99.90
52209;DHT22;38507;53.132;6.394;2023-02-10T01:06:32;0.40;99.90
52209;DHT22;38507;53.132;6.394;2023-02-10T01:08:58;1.50;99.90
52209;DHT22;38507;53.132;6.394;2023-02-10T01:11:23;0.60;99.90
52209;DHT22;38507;53.132;6.394;2023-02-10T01:13:49;0.60;99.90
52209;DHT22;38507;53.132;6.394;2023-02-10T01:16:15;0.70;99.90
52209;DHT22;38507;53.132;6.394;2023-02-10T01:18:45;0.60;99.90
52209;DHT22;38507;53.132;6.394;2023-02-10T01:21:13;0.80;99.90
52209;DHT22;38507;53.132;6.394;2023-02-10T01:23:52;0.60;99.90
52209;DHT22;38507;53.132;6.394;2023-02-10T01:26:19;2.00;99.90
52209;DHT22;38507;53.132;6.394;2023-02-10T01:28:44;0.60;99.90
52209;DHT22;38507;53.132;6.394;2023-02-10T01:31:28;1.30;99.90
52209;DHT22;38507;53.132;6.394;2023-02-10T01:33:54;0.70;99.90
52209;DHT22;38507;53.132;6.394;2023-02-10T01:36:26;0.50;99.90
52209;DHT22;38507;53.132;6.394;2023-02-10T01:38:52;0.50;99.90
52209;DHT22;38507;53.132;6.394;2023-02-10T01:41:27;0.60;99.90
52209;DHT22;38507;53.132;6.394;2023-02-10T01:44:04;0.50;99.90
52209;DHT22;38507;53.132;6.394;2023-02-10T01:46:33;0.40;99.90
52209;DHT22;38507;53.132;6.394;2023-02-10T01:49:05;1.60;99.90
52209;DHT22;38507;53.132;6.394;2023-02-10T01:51:42;1.60;99.90
52209;DHT22;38507;53.132;6.394;2023-02-10T01:54:13;0.60;99.90
52209;DHT22;38507;53.132;6.394;2023-02-10T01:56:41;2.00;99.90
52209;DHT22;38507;53.132;6.394;2023-02-10T01:59:07;1.70;99.90
52209;DHT22;38507;53.132;6.394;2023-02-10T02:01:33;2.20;99.90
52209;DHT22;38507;53.132;6.394;2023-02-10T02:04:00;0.60;99.90
52209;DHT22;38507;53.132;6.394;2023-02-10T02:06:27;2.00;99.90
52209;DHT22;38507;53.132;6.394;2023-02-10T02:08:53;0.70;99.90
52209;DHT22;38507;53.132;6.394;2023-02-10T02:22:18;0.70;99.90
52209;DHT22;38507;53.132;6.394;2023-02-10T02:24:57;0.70;99.90
52209;DHT22;38507;53.132;6.394;2023-02-10T02:30:28;0.60;99.90
52209;DHT22;38507;53.132;6.394;2023-02-10T02:33:04;1.40;99.90
52209;DHT22;38507;53.132;6.394;2023-02-10T02:35:40;0.60;99.90
52209;DHT22;38507;53.132;6.394;2023-02-10T02:38:08;1.20;99.90
52209;DHT22;38507;53.132;6.394;2023-02-10T02:40:34;0.60;99.90
52209;DHT22;38507;53.132;6.394;2023-02-10T02:43:00;0.60;99.90
52209;DHT22;38507;53.132;6.394;2023-02-10T02:48:17;0.60;99.90
52209;DHT22;38507;53.132;6.394;2023-02-10T02:59:37;0.50;99.90
52209;DHT22;38507;53.132;6.394;2023-02-10T03:02:09;0.50;99.90
52209;DHT22;38507;53.132;6.394;2023-02-10T03:04:37;0.50;99.90
52209;DHT22;38507;53.132;6.394;2023-02-10T03:07:04;0.50;99.90
52209;DHT22;38507;53.132;6.394;2023-02-10T03:09:30;0.50;99.90
52209;DHT22;38507;53.132;6.394;2023-02-10T03:11:56;0.50;99.90
52209;DHT22;38507;53.132;6.394;2023-02-10T03:14:22;0.50;99.90
52209;DHT22;38507;53.132;6.394;2023-02-10T03:16:47;0.50;99.90
52209;DHT22;38507;53.132;6.394;2023-02-10T03:19:13;0.40;99.90
52209;DHT22;38507;53.132;6.394;2023-02-10T03:21:39;0.50;99.90
52209;DHT22;38507;53.132;6.394;2023-02-10T03:24:05;0.50;99.90
52209;DHT22;38507;53.132;6.394;2023-02-10T03:26:31;0.50;99.90
52209;DHT22;38507;53.132;6.394;2023-02-10T03:28:57;0.40;99.90
52209;DHT22;38507;53.132;6.394;2023-02-10T03:31:23;0.50;99.90
52209;DHT22;38507;53.132;6.394;2023-02-10T03:33:49;0.40;99.90
52209;DHT22;38507;53.132;6.394;2023-02-10T03:36:15;1.30;99.90
52209;DHT22;38507;53.132;6.394;2023-02-10T03:38:40;0.40;99.90
52209;DHT22;38507;53.132;6.394;2023-02-10T03:41:06;1.00;99.90
52209;DHT22;38507;53.132;6.394;2023-02-10T03:43:32;1.40;99.90
52209;DHT22;38507;53.132;6.394;2023-02-10T03:46:02;0.40;99.90
52209;DHT22;38507;53.132;6.394;2023-02-10T03:48:28;0.30;99.90
52209;DHT22;38507;53.132;6.394;2023-02-10T03:51:02;0.40;99.90
52209;DHT22;38507;53.132;6.394;2023-02-10T03:53:29;0.60;99.90
52209;DHT22;38507;53.132;6.394;2023-02-10T03:55:55;0.50;99.90
52209;DHT22;38507;53.132;6.394;2023-02-10T03:58:21;0.60;99.90
52209;DHT22;38507;53.132;6.394;2023-02-10T04:00:47;1.40;99.90
52209;DHT22;38507;53.132;6.394;2023-02-10T04:03:12;0.60;99.90
52209;DHT22;38507;53.132;6.394;2023-02-10T04:05:38;0.60;99.90
52209;DHT22;38507;53.132;6.394;2023-02-10T04:08:04;1.40;99.90
52209;DHT22;38507;53.132;6.394;2023-02-10T04:10:30;1.80;99.90
52209;DHT22;38507;53.132;6.394;2023-02-10T04:12:56;0.60;99.90
52209;DHT22;38507;53.132;6.394;2023-02-10T04:15:21;0.60;99.90
52209;DHT22;38507;53.132;6.394;2023-02-10T04:17:47;0.80;99.90
52209;DHT22;38507;53.132;6.394;2023-02-10T04:20:13;0.80;99.90
52209;DHT22;38507;53.132;6.394;2023-02-10T04:22:39;1.80;99.90
52209;DHT22;38507;53.132;6.394;2023-02-10T04:25:05;0.80;99.90
52209;DHT22;38507;53.132;6.394;2023-02-10T04:27:31;0.80;99.90
52209;DHT22;38507;53.132;6.394;2023-02-10T04:29:57;0.80;99.90
52209;DHT22;38507;53.132;6.394;2023-02-10T04:32:23;1.20;99.90
52209;DHT22;38507;53.132;6.394;2023-02-10T04:35:02;1.10;99.90
52209;DHT22;38507;53.132;6.394;2023-02-10T04:37:27;1.10;99.90
52209;DHT22;38507;53.132;6.394;2023-02-10T04:39:53;1.90;99.90
52209;DHT22;38507;53.132;6.394;2023-02-10T04:42:18;1.00;99.90
52209;DHT22;38507;53.132;6.394;2023-02-10T04:44:44;1.00;99.90
52209;DHT22;38507;53.132;6.394;2023-02-10T04:47:10;1.10;99.90
52209;DHT22;38507;53.132;6.394;2023-02-10T04:49:35;1.10;99.90
52209;DHT22;38507;53.132;6.394;2023-02-10T04:52:01;1.50;99.90
52209;DHT22;38507;53.132;6.394;2023-02-10T04:54:27;1.10;99.90
52209;DHT22;38507;53.132;6.394;2023-02-10T04:56:53;1.10;99.90
52209;DHT22;38507;53.132;6.394;2023-02-10T04:59:18;1.10;99.90
52209;DHT22;38507;53.132;6.394;2023-02-10T05:01:44;1.10;99.90
52209;DHT22;38507;53.132;6.394;2023-02-10T05:04:10;1.90;99.90
52209;DHT22;38507;53.132;6.394;2023-02-10T05:06:36;1.00;99.90
52209;DHT22;38507;53.132;6.394;2023-02-10T05:09:02;2.50;99.90
52209;DHT22;38507;53.132;6.394;2023-02-10T05:11:28;1.20;99.90
52209;DHT22;38507;53.132;6.394;2023-02-10T05:13:54;1.20;99.90
52209;DHT22;38507;53.132;6.394;2023-02-10T05:16:19;1.10;99.90
52209;DHT22;38507;53.132;6.394;2023-02-10T05:18:45;1.10;99.90
52209;DHT22;38507;53.132;6.394;2023-02-10T05:21:12;2.30;99.90
52209;DHT22;38507;53.132;6.394;2023-02-10T05:23:39;1.20;99.90
52209;DHT22;38507;53.132;6.394;2023-02-10T05:26:05;1.20;99.90
52209;DHT22;38507;53.132;6.394;2023-02-10T05:28:31;1.20;99.90
52209;DHT22;38507;53.132;6.394;2023-02-10T05:30:57;1.20;99.90
52209;DHT22;38507;53.132;6.394;2023-02-10T05:33:23;1.20;99.90
52209;DHT22;38507;53.132;6.394;2023-02-10T05:35:48;1.20;99.90
52209;DHT22;38507;53.132;6.394;2023-02-10T05:38:14;2.50;99.90
52209;DHT22;38507;53.132;6.394;2023-02-10T05:40:39;2.10;99.90
52209;DHT22;38507;53.132;6.394;2023-02-10T05:43:05;1.00;99.90
52209;DHT22;38507;53.132;6.394;2023-02-10T05:45:33;1.10;99.90
52209;DHT22;38507;53.132;6.394;2023-02-10T05:47:59;1.60;99.90
52209;DHT22;38507;53.132;6.394;2023-02-10T05:50:24;2.10;99.90
52209;DHT22;38507;53.132;6.394;2023-02-10T05:52:50;1.00;99.90
52209;DHT22;38507;53.132;6.394;2023-02-10T05:55:16;1.00;99.90
52209;DHT22;38507;53.132;6.394;2023-02-10T05:57:41;1.20;99.90
52209;DHT22;38507;53.132;6.394;2023-02-10T06:00:08;1.10;99.90
52209;DHT22;38507;53.132;6.394;2023-02-10T06:02:34;1.10;99.90
52209;DHT22;38507;53.132;6.394;2023-02-10T06:05:00;1.10;99.90
52209;DHT22;38507;53.132;6.394;2023-02-10T06:07:27;1.20;99.90
52209;DHT22;38507;53.132;6.394;2023-02-10T06:09:52;1.10;99.90
52209;DHT22;38507;53.132;6.394;2023-02-10T06:12:18;1.10;99.90
52209;DHT22;38507;53.132;6.394;2023-02-10T06:14:44;1.10;99.90
52209;DHT22;38507;53.132;6.394;2023-02-10T06:17:10;1.10;99.90
52209;DHT22;38507;53.132;6.394;2023-02-10T06:19:37;2.20;99.90
52209;DHT22;38507;53.132;6.394;2023-02-10T06:22:03;1.10;99.90
52209;DHT22;38507;53.132;6.394;2023-02-10T06:24:29;1.10;99.90
52209;DHT22;38507;53.132;6.394;2023-02-10T06:26:55;2.20;99.90
52209;DHT22;38507;53.132;6.394;2023-02-10T06:29:21;1.10;99.90
52209;DHT22;38507;53.132;6.394;2023-02-10T06:31:46;1.10;99.90
52209;DHT22;38507;53.132;6.394;2023-02-10T06:34:12;1.10;99.90
52209;DHT22;38507;53.132;6.394;2023-02-10T06:36:38;1.00;99.90
52209;DHT22;38507;53.132;6.394;2023-02-10T06:39:04;1.00;99.90
52209;DHT22;38507;53.132;6.394;2023-02-10T06:41:30;1.00;99.90
52209;DHT22;38507;53.132;6.394;2023-02-10T06:43:55;1.20;99.90
52209;DHT22;38507;53.132;6.394;2023-02-10T06:46:21;0.80;99.90
52209;DHT22;38507;53.132;6.394;2023-02-10T06:48:47;2.00;99.90
52209;DHT22;38507;53.132;6.394;2023-02-10T06:51:13;0.90;99.90
52209;DHT22;38507;53.132;6.394;2023-02-10T06:53:39;1.00;99.90
52209;DHT22;38507;53.132;6.394;2023-02-10T06:56:04;1.70;99.90
52209;DHT22;38507;53.132;6.394;2023-02-10T06:58:30;1.00;99.90
52209;DHT22;38507;53.132;6.394;2023-02-10T07:00:56;1.00;99.90
52209;DHT22;38507;53.132;6.394;2023-02-10T07:03:24;2.30;99.90
52209;DHT22;38507;53.132;6.394;2023-02-10T07:05:50;1.70;99.90
52209;DHT22;38507;53.132;6.394;2023-02-10T07:08:16;1.80;99.90
52209;DHT22;38507;53.132;6.394;2023-02-10T07:10:41;1.90;99.90
52209;DHT22;38507;53.132;6.394;2023-02-10T07:13:07;2.10;99.90
52209;DHT22;38507;53.132;6.394;2023-02-10T07:15:33;1.10;99.90
52209;DHT22;38507;53.132;6.394;2023-02-10T07:17:58;1.00;99.90
52209;DHT22;38507;53.132;6.394;2023-02-10T07:20:24;2.00;99.90
52209;DHT22;38507;53.132;6.394;2023-02-10T07:22:50;1.10;99.90
52209;DHT22;38507;53.132;6.394;2023-02-10T07:25:17;1.20;99.90
52209;DHT22;38507;53.132;6.394;2023-02-10T07:27:43;1.20;99.90
52209;DHT22;38507;53.132;6.394;2023-02-10T07:30:10;2.30;99.90
52209;DHT22;38507;53.132;6.394;2023-02-10T07:32:36;1.30;99.90
52209;DHT22;38507;53.132;6.394;2023-02-10T07:35:02;2.30;99.90
52209;DHT22;38507;53.132;6.394;2023-02-10T07:37:28;1.40;99.90
52209;DHT22;38507;53.132;6.394;2023-02-10T07:39:54;1.70;99.90
52209;DHT22;38507;53.132;6.394;2023-02-10T07:42:20;1.50;99.90
52209;DHT22;38507;53.132;6.394;2023-02-10T07:44:45;1.50;99.90
52209;DHT22;38507;53.132;6.394;2023-02-10T07:47:11;2.80;99.90
52209;DHT22;38507;53.132;6.394;2023-02-10T07:49:37;1.50;99.90
52209;DHT22;38507;53.132;6.394;2023-02-10T07:52:03;1.50;99.90
52209;DHT22;38507;53.132;6.394;2023-02-10T07:54:28;1.60;99.90
52209;DHT22;38507;53.132;6.394;2023-02-10T07:56:56;2.60;99.90
52209;DHT22;38507;53.132;6.394;2023-02-10T07:59:21;2.60;99.90
52209;DHT22;38507;53.132;6.394;2023-02-10T08:01:47;2.60;99.90
52209;DHT22;38507;53.132;6.394;2023-02-10T08:04:13;2.50;99.90
52209;DHT22;38507;53.132;6.394;2023-02-10T08:06:39;1.70;99.90
52209;DHT22;38507;53.132;6.394;2023-02-10T08:09:05;1.80;99.90
52209;DHT22;38507;53.132;6.394;2023-02-10T08:11:32;1.70;99.90
52209;DHT22;38507;53.132;6.394;2023-02-10T08:13:57;2.90;99.90
52209;DHT22;38507;53.132;6.394;2023-02-10T08:16:23;2.60;99.90
52209;DHT22;38507;53.132;6.394;2023-02-10T08:18:49;2.00;99.90
52209;DHT22;38507;53.132;6.394;2023-02-10T08:21:15;3.20;99.90
52209;DHT22;38507;53.132;6.394;2023-02-10T08:23:41;2.00;99.90
52209;DHT22;38507;53.132;6.394;2023-02-10T08:26:09;2.20;99.90
52209;DHT22;38507;53.132;6.394;2023-02-10T08:28:35;3.50;99.90
52209;DHT22;38507;53.132;6.394;2023-02-10T08:31:03;2.20;99.90
52209;DHT22;38507;53.132;6.394;2023-02-10T08:33:29;2.30;99.90
52209;DHT22;38507;53.132;6.394;2023-02-10T08:35:56;2.70;99.90
52209;DHT22;38507;53.132;6.394;2023-02-10T08:38:22;2.40;99.90
52209;DHT22;38507;53.132;6.394;2023-02-10T08:40:57;2.40;99.90
52209;DHT22;38507;53.132;6.394;2023-02-10T08:43:23;2.90;99.90
52209;DHT22;38507;53.132;6.394;2023-02-10T08:45:49;2.50;99.90
52209;DHT22;38507;53.132;6.394;2023-02-10T08:48:15;2.50;99.90
52209;DHT22;38507;53.132;6.394;2023-02-10T08:50:40;2.50;99.90
52209;DHT22;38507;53.132;6.394;2023-02-10T08:53:06;2.50;99.90
52209;DHT22;38507;53.132;6.394;2023-02-10T08:55:32;2.50;99.90
52209;DHT22;38507;53.132;6.394;2023-02-10T08:57:57;2.50;99.90
52209;DHT22;38507;53.132;6.394;2023-02-10T09:00:23;2.60;99.90
52209;DHT22;38507;53.132;6.394;2023-02-10T09:02:49;2.60;99.90
52209;DHT22;38507;53.132;6.394;2023-02-10T09:05:16;3.50;99.90
52209;DHT22;38507;53.132;6.394;2023-02-10T09:07:41;2.70;99.90
52209;DHT22;38507;53.132;6.394;2023-02-10T09:10:09;2.70;99.90
52209;DHT22;38507;53.132;6.394;2023-02-10T09:12:37;2.90;99.90
52209;DHT22;38507;53.132;6.394;2023-02-10T09:15:03;3.00;99.90
52209;DHT22;38507;53.132;6.394;2023-02-10T09:17:29;3.00;99.90
52209;DHT22;38507;53.132;6.394;2023-02-10T09:19:55;3.10;99.90
52209;DHT22;38507;53.132;6.394;2023-02-10T09:22:32;3.20;99.90
52209;DHT22;38507;53.132;6.394;2023-02-10T09:24:58;3.30;99.90
52209;DHT22;38507;53.132;6.394;2023-02-10T09:27:26;3.90;99.90
52209;DHT22;38507;53.132;6.394;2023-02-10T09:29:51;3.40;99.90
52209;DHT22;38507;53.132;6.394;2023-02-10T09:32:17;4.00;99.90
52209;DHT22;38507;53.132;6.394;2023-02-10T09:34:43;4.60;99.90
52209;DHT22;38507;53.132;6.394;2023-02-10T09:37:10;5.30;99.90
52209;DHT22;38507;53.132;6.394;2023-02-10T09:39:36;5.20;99.90
52209;DHT22;38507;53.132;6.394;2023-02-10T09:44:52;5.50;99.90
52209;DHT22;38507;53.132;6.394;2023-02-10T09:53:13;4.50;99.90
52209;DHT22;38507;53.132;6.394;2023-02-10T09:55:57;4.50;99.90
52209;DHT22;38507;53.132;6.394;2023-02-10T09:58:46;4.60;99.90
52209;DHT22;38507;53.132;6.394;2023-02-10T10:04:03;4.90;99.90
52209;DHT22;38507;53.132;6.394;2023-02-10T10:06:39;5.00;99.90
52209;DHT22;38507;53.132;6.394;2023-02-10T10:11:37;6.50;99.90
52209;DHT22;38507;53.132;6.394;2023-02-10T10:14:04;5.40;99.90
52209;DHT22;38507;53.132;6.394;2023-02-10T10:22:52;5.80;99.90
52209;DHT22;38507;53.132;6.394;2023-02-10T10:25:48;5.90;99.90
52209;DHT22;38507;53.132;6.394;2023-02-10T10:35:14;5.60;99.90
52209;DHT22;38507;53.132;6.394;2023-02-10T10:37:40;6.40;99.90
52209;DHT22;38507;53.132;6.394;2023-02-10T10:40:07;7.20;99.90
52209;DHT22;38507;53.132;6.394;2023-02-10T10:42:48;6.60;99.90
52209;DHT22;38507;53.132;6.394;2023-02-10T10:45:18;7.50;99.90
52209;DHT22;38507;53.132;6.394;2023-02-10T10:47:54;7.60;99.90
52209;DHT22;38507;53.132;6.394;2023-02-10T10:50:22;6.70;99.90
52209;DHT22;38507;53.132;6.394;2023-02-10T10:52:53;7.60;99.90
52209;DHT22;38507;53.132;6.394;2023-02-10T11:00:51;7.00;99.90
52209;DHT22;38507;53.132;6.394;2023-02-10T11:03:16;7.10;99.90
52209;DHT22;38507;53.132;6.394;2023-02-10T11:05:43;7.60;99.90
52209;DHT22;38507;53.132;6.394;2023-02-10T11:08:23;7.60;99.90
52209;DHT22;38507;53.132;6.394;2023-02-10T11:10:55;7.80;99.90
52209;DHT22;38507;53.132;6.394;2023-02-10T11:13:24;8.20;99.90
52209;DHT22;38507;53.132;6.394;2023-02-10T11:18:33;7.20;99.90
52209;DHT22;38507;53.132;6.394;2023-02-10T11:21:08;8.40;99.90
52209;DHT22;38507;53.132;6.394;2023-02-10T11:23:53;7.50;99.90
52209;DHT22;38507;53.132;6.394;2023-02-10T11:28:55;7.60;99.90
52209;DHT22;38507;53.132;6.394;2023-02-10T11:31:34;8.60;99.90
52209;DHT22;38507;53.132;6.394;2023-02-10T11:34:31;7.10;99.90
52209;DHT22;38507;53.132;6.394;2023-02-10T11:37:08;8.00;99.90
52209;DHT22;38507;53.132;6.394;2023-02-10T11:39:38;9.10;99.90
52209;DHT22;38507;53.132;6.394;2023-02-10T11:42:18;8.90;99.90
52209;DHT22;38507;53.132;6.394;2023-02-10T11:45:03;7.90;99.90
52209;DHT22;38507;53.132;6.394;2023-02-10T11:47:36;7.90;99.90
52209;DHT22;38507;53.132;6.394;2023-02-10T11:50:04;9.10;99.90
52209;DHT22;38507;53.132;6.394;2023-02-10T11:52:30;8.10;99.90
52209;DHT22;38507;53.132;6.394;2023-02-10T11:54:58;8.90;99.90
52209;DHT22;38507;53.132;6.394;2023-02-10T11:57:41;7.90;99.90
52209;DHT22;38507;53.132;6.394;2023-02-10T12:06:17;8.10;99.90
52209;DHT22;38507;53.132;6.394;2023-02-10T12:09:02;8.10;99.90
52209;DHT22;38507;53.132;6.394;2023-02-10T12:23:22;8.50;99.90
52209;DHT22;38507;53.132;6.394;2023-02-10T12:31:38;8.50;99.90
52209;DHT22;38507;53.132;6.394;2023-02-10T12:40:06;8.30;99.90
52209;DHT22;38507;53.132;6.394;2023-02-10T12:48:31;8.30;99.90
52209;DHT22;38507;53.132;6.394;2023-02-10T12:53:57;8.10;99.90
52209;DHT22;38507;53.132;6.394;2023-02-10T12:56:51;9.10;99.90
52209;DHT22;38507;53.132;6.394;2023-02-10T12:59:21;8.20;99.90
52209;DHT22;38507;53.132;6.394;2023-02-10T13:01:53;8.10;99.90
52209;DHT22;38507;53.132;6.394;2023-02-10T13:04:27;8.10;99.90
52209;DHT22;38507;53.132;6.394;2023-02-10T13:06:59;8.90;99.90
52209;DHT22;38507;53.132;6.394;2023-02-10T13:09:53;9.20;99.90
52209;DHT22;38507;53.132;6.394;2023-02-10T13:12:29;8.10;99.90
52209;DHT22;38507;53.132;6.394;2023-02-10T13:15:04;9.20;99.90
52209;DHT22;38507;53.132;6.394;2023-02-10T13:17:41;9.00;99.90
52209;DHT22;38507;53.132;6.394;2023-02-10T13:22:58;8.10;99.90
52209;DHT22;38507;53.132;6.394;2023-02-10T13:29:03;8.00;99.90
52209;DHT22;38507;53.132;6.394;2023-02-10T13:34:30;8.10;99.90
52209;DHT22;38507;53.132;6.394;2023-02-10T13:37:17;8.20;99.90
52209;DHT22;38507;53.132;6.394;2023-02-10T13:39:54;8.20;99.90
52209;DHT22;38507;53.132;6.394;2023-02-10T13:42:35;8.20;99.90
52209;DHT22;38507;53.132;6.394;2023-02-10T13:45:13;8.20;99.90
52209;DHT22;38507;53.132;6.394;2023-02-10T13:55:41;8.60;99.90
52209;DHT22;38507;53.132;6.394;2023-02-10T14:00:45;8.60;99.90
52209;DHT22;38507;53.132;6.394;2023-02-10T14:05:49;9.50;99.90
52209;DHT22;38507;53.132;6.394;2023-02-10T14:08:27;8.40;99.90
52209;DHT22;38507;53.132;6.394;2023-02-10T14:13:44;9.50;99.90
52209;DHT22;38507;53.132;6.394;2023-02-10T14:18:38;9.60;99.90
52209;DHT22;38507;53.132;6.394;2023-02-10T14:21:08;9.40;99.90
52209;DHT22;38507;53.132;6.394;2023-02-10T14:23:37;9.20;99.90
52209;DHT22;38507;53.132;6.394;2023-02-10T14:26:16;8.40;99.90
52209;DHT22;38507;53.132;6.394;2023-02-10T14:28:54;8.30;99.90
52209;DHT22;38507;53.132;6.394;2023-02-10T14:31:26;8.30;99.90
52209;DHT22;38507;53.132;6.394;2023-02-10T14:33:57;9.20;99.90
52209;DHT22;38507;53.132;6.394;2023-02-10T14:36:24;9.30;99.90
52209;DHT22;38507;53.132;6.394;2023-02-10T14:38:56;9.10;99.90
52209;DHT22;38507;53.132;6.394;2023-02-10T14:41:23;8.30;99.90
52209;DHT22;38507;53.132;6.394;2023-02-10T14:43:49;8.70;99.90
52209;DHT22;38507;53.132;6.394;2023-02-10T14:46:22;8.30;99.90
52209;DHT22;38507;53.132;6.394;2023-02-10T14:48:48;9.30;99.90
52209;DHT22;38507;53.132;6.394;2023-02-10T14:51:23;9.20;99.90
52209;DHT22;38507;53.132;6.394;2023-02-10T14:53:49;8.10;99.90
52209;DHT22;38507;53.132;6.394;2023-02-10T14:56:25;8.90;99.90
52209;DHT22;38507;53.132;6.394;2023-02-10T14:58:51;8.10;99.90
52209;DHT22;38507;53.132;6.394;2023-02-10T15:01:27;8.90;99.90
52209;DHT22;38507;53.132;6.394;2023-02-10T15:03:54;8.00;99.90
52209;DHT22;38507;53.132;6.394;2023-02-10T15:06:25;8.50;99.90
52209;DHT22;38507;53.132;6.394;2023-02-10T15:11:28;7.70;99.90
52209;DHT22;38507;53.132;6.394;2023-02-10T15:14:48;8.10;99.90
52209;DHT22;38507;53.132;6.394;2023-02-10T15:17:23;8.40;99.90
52209;DHT22;38507;53.132;6.394;2023-02-10T15:19:58;7.30;99.90
52209;DHT22;38507;53.132;6.394;2023-02-10T15:27:49;7.20;99.90
52209;DHT22;38507;53.132;6.394;2023-02-10T15:30:26;7.10;99.90
52209;DHT22;38507;53.132;6.394;2023-02-10T15:32:55;7.00;99.90
52209;DHT22;38507;53.132;6.394;2023-02-10T15:35:21;8.00;99.90
52209;DHT22;38507;53.132;6.394;2023-02-10T15:37:59;8.00;99.90
52209;DHT22;38507;53.132;6.394;2023-02-10T15:40:29;7.00;99.90
52209;DHT22;38507;53.132;6.394;2023-02-10T15:43:05;6.90;99.90
52209;DHT22;38507;53.132;6.394;2023-02-10T15:45:31;7.80;99.90
52209;DHT22;38507;53.132;6.394;2023-02-10T15:48:15;7.40;99.90
52209;DHT22;38507;53.132;6.394;2023-02-10T15:50:43;7.80;99.90
52209;DHT22;38507;53.132;6.394;2023-02-10T15:53:09;7.80;99.90
52209;DHT22;38507;53.132;6.394;2023-02-10T15:55:40;6.60;99.90
52209;DHT22;38507;53.132;6.394;2023-02-10T15:58:08;7.50;99.90
52209;DHT22;38507;53.132;6.394;2023-02-10T16:00:35;7.30;99.90
52209;DHT22;38507;53.132;6.394;2023-02-10T16:03:03;7.10;99.90
52209;DHT22;38507;53.132;6.394;2023-02-10T16:05:30;6.60;99.90
52209;DHT22;38507;53.132;6.394;2023-02-10T16:08:04;6.40;99.90
52209;DHT22;38507;53.132;6.394;2023-02-10T16:10:32;6.30;99.90
52209;DHT22;38507;53.132;6.394;2023-02-10T16:12:58;7.40;99.90
52209;DHT22;38507;53.132;6.394;2023-02-10T16:15:25;7.20;99.90
52209;DHT22;38507;53.132;6.394;2023-02-10T16:17:56;7.10;99.90
52209;DHT22;38507;53.132;6.394;2023-02-10T16:20:25;7.20;99.90
52209;DHT22;38507;53.132;6.394;2023-02-10T16:23:57;7.30;99.90
52209;DHT22;38507;53.132;6.394;2023-02-10T16:26:23;7.40;99.90
52209;DHT22;38507;53.132;6.394;2023-02-10T16:28:50;6.20;99.90
52209;DHT22;38507;53.132;6.394;2023-02-10T16:31:17;7.10;99.90
52209;DHT22;38507;53.132;6.394;2023-02-10T16:33:45;7.30;99.90
52209;DHT22;38507;53.132;6.394;2023-02-10T16:36:14;7.00;99.90
52209;DHT22;38507;53.132;6.394;2023-02-10T16:38:42;7.10;99.90
52209;DHT22;38507;53.132;6.394;2023-02-10T16:41:08;6.00;99.90
52209;DHT22;38507;53.132;6.394;2023-02-10T16:43:34;6.70;99.90
52209;DHT22;38507;53.132;6.394;2023-02-10T16:45:59;6.70;99.90
52209;DHT22;38507;53.132;6.394;2023-02-10T16:48:25;6.90;99.90
52209;DHT22;38507;53.132;6.394;2023-02-10T16:50:51;6.60;99.90
52209;DHT22;38507;53.132;6.394;2023-02-10T16:53:17;5.90;99.90
52209;DHT22;38507;53.132;6.394;2023-02-10T16:55:43;6.00;99.90
52209;DHT22;38507;53.132;6.394;2023-02-10T16:58:16;6.80;99.90
52209;DHT22;38507;53.132;6.394;2023-02-10T17:00:42;6.70;99.90
52209;DHT22;38507;53.132;6.394;2023-02-10T17:03:09;6.60;99.90
52209;DHT22;38507;53.132;6.394;2023-02-10T17:05:35;5.60;99.90
52209;DHT22;38507;53.132;6.394;2023-02-10T17:08:03;5.50;99.90
52209;DHT22;38507;53.132;6.394;2023-02-10T17:10:30;6.10;99.90
52209;DHT22;38507;53.132;6.394;2023-02-10T17:12:56;5.50;99.90
52209;DHT22;38507;53.132;6.394;2023-02-10T17:15:22;5.50;99.90
52209;DHT22;38507;53.132;6.394;2023-02-10T17:17:48;5.60;99.90
52209;DHT22;38507;53.132;6.394;2023-02-10T17:20:26;6.20;99.90
52209;DHT22;38507;53.132;6.394;2023-02-10T17:22:52;6.10;99.90
52209;DHT22;38507;53.132;6.394;2023-02-10T17:25:18;5.40;99.90
52209;DHT22;38507;53.132;6.394;2023-02-10T17:27:44;6.40;99.90
52209;DHT22;38507;53.132;6.394;2023-02-10T17:30:15;6.50;99.90
52209;DHT22;38507;53.132;6.394;2023-02-10T17:32:42;5.40;99.90
52209;DHT22;38507;53.132;6.394;2023-02-10T17:35:11;5.40;99.90
52209;DHT22;38507;53.132;6.394;2023-02-10T17:37:38;5.50;99.90
52209;DHT22;38507;53.132;6.394;2023-02-10T17:40:04;6.50;99.90
52209;DHT22;38507;53.132;6.394;2023-02-10T17:42:41;5.60;99.90
52209;DHT22;38507;53.132;6.394;2023-02-10T17:45:11;5.60;99.90
52209;DHT22;38507;53.132;6.394;2023-02-10T17:47:37;5.70;99.90
52209;DHT22;38507;53.132;6.394;2023-02-10T17:50:03;6.10;99.90
52209;DHT22;38507;53.132;6.394;2023-02-10T17:52:29;5.70;99.90
52209;DHT22;38507;53.132;6.394;2023-02-10T17:54:54;6.90;99.90
52209;DHT22;38507;53.132;6.394;2023-02-10T17:57:20;6.00;99.90
52209;DHT22;38507;53.132;6.394;2023-02-10T17:59:46;6.20;99.90
52209;DHT22;38507;53.132;6.394;2023-02-10T18:02:12;6.20;99.90
52209;DHT22;38507;53.132;6.394;2023-02-10T18:04:41;5.90;99.90
52209;DHT22;38507;53.132;6.394;2023-02-10T18:07:09;6.90;99.90
52209;DHT22;38507;53.132;6.394;2023-02-10T18:09:35;6.30;99.90
52209;DHT22;38507;53.132;6.394;2023-02-10T18:12:00;6.00;99.90